AirNav   Pilot Hours Calculator
 
 398 users online  

3NA0 Erickson Airport
Clifford, North Dakota, USA

GOING TO CLIFFORD?


FAA INFORMATION EFFECTIVE 22 APRIL 2021

Location

FAA Identifier: 3NA0
Lat/Long: 47-24-59.9540N 097-30-41.3250W
47-24.999233N 097-30.688750W
47.4166539,-97.5114792
(estimated)
Elevation: 1095 ft. / 334 m (estimated)
Variation: 07E (1985)
From city: 6 miles NW of CLIFFORD, ND
Time zone: UTC -5 (UTC -6 during Standard Time)
Zip code: 58274

Airport Operations

Airport use: Private use. Permission required prior to landing
Activation date: 11/1984
Control tower: no
ARTCC: MINNEAPOLIS CENTER
FSS: GRAND FORKS FLIGHT SERVICE STATION
Attendance: UNATNDD
Wind indicator: yes
Segmented circle: no

Nearby radio navigation aids

VOR radial/distance  VOR name  Freq  Var
GFKr193/34.9GRAND FORKS VOR/DME114.3009E

Airport Services

Runway Information

Runway 8/26

Dimensions: 2600 x 50 ft. / 792 x 15 m
Surface: turf
RUNWAY 8  RUNWAY 26
Traffic pattern: leftleft
Obstructions: road, 50 ft. from runwaytrees, 50 ft. from runway
TREES LCTD 50'L&R OF CL AT THR.

Airport Ownership and Management from official FAA records

Ownership: Privately-owned
Owner: LAUREN A. ERICKSON
42 142ND AVE NE
PORTLAND, ND 58274
Phone 701-361-1770
Manager: LAUREN A. ERICKSON
42 142ND AVE NE
PORTLAND, ND 58274
Phone 701-361-1770

Airport Operational Statistics

Aircraft based on the field: 1
Single engine airplanes: 1
    

Additional Remarks

FOR CD CTC MINNEAPOLIS ARTCC AT 651-463-5588.

Instrument Procedures

There are no published instrument procedures at 3NA0.

Some nearby airports with instrument procedures:

3H4 - Hillsboro Municipal Airport (19 nm E)
4V4 - Northwood Municipal Airport-Vince Field (19 nm N)
S32 - Cooperstown Municipal Airport (24 nm W)
KRDR - Grand Forks Air Force Base (33 nm N)
KGFK - Grand Forks International Airport (35 nm NE)
 
Loc | Ops | Rwys | IFR | FBO | Links
Com | Nav | Svcs | Stats | Notes

Bismarck Aero Center
AirBoss

 
Area around 3NA0 (Erickson Airport)
 
Road maps at: MapQuest Bing Google
 
Aerial photo
No photo
 
Sectional chart

 
Airport distance calculator
Flying to Erickson Airport? Find the distance to fly.

From to 3NA0

Sunrise and sunset
Times for 09-May-2021
 Local
(UTC-5)
 Zulu
(UTC)
Morning civil twilight05:2710:27
Sunrise06:0211:02
Sunset20:5101:51
Evening civil twilight21:2602:26

Current date and time
Zulu (UTC)  09-May-2021 07:03:14
Local (UTC-5)  09-May-2021 02:03:14
 
METAR
KS32 
24nm W 
090655Z AUTO 03015KT 10SM CLR 05/M07 A3010 RMK AO2 TSNO
KRDR 
33nm N 
090656Z 36007KT 10SM CLR 01/M07 A3012 RMK AO2A SLP211 T00131070 $
KGFK 
35nm N 
090653Z AUTO 33006KT 10SM CLR 00/M07 A3011 RMK AO2 SLP205 T00001072
KBAC 
35nm SW 
090655Z AUTO 03011G17KT 10SM CLR 05/M07 A3008 RMK AO2
KFAR 
41nm SE 
090653Z 04008KT 10SM CLR 04/M06 A3006 RMK AO2 SLP184 T00441061 $
KCKN 
45nm NE 
090655Z AUTO 00000KT 10SM CLR M02/M09 A3011 RMK AO2
TAF
KRDR 
33nm N 
090200Z 0902/1008 VRB06KT 9999 FEW200 QNH3003INS BECMG 0912/0913 VRB06KT 9999 FEW050 QNH3015INS TX12/0921Z TN00/0911Z
KGFK 
35nm N 
090520Z 0906/1006 03008KT P6SM BKN250 FM090900 36007KT P6SM FEW250
KFAR 
41nm SE 
090520Z 0906/1006 04006KT P6SM BKN200 FM092000 01013KT P6SM SCT250
NOTAMs
Click for the latest NOTAMs
NOTAMs are issued by the DoD/FAA and will open in a separate window not controlled by AirNav.

 

 
 

Would you like to see your business listed on this page?

 If your business provides an interesting product or service to pilots, flight crews, aircraft, or users of the Erickson Airport, you should consider listing it here.  To start the listing process, click on the button below
 
Add a business
 

Other Pages about Erickson Airport

Update a link
 
Copyright © AirNav, LLC. All rights reserved. Privacy Policy  Contact